sensor_id;sensor_type;location;lat;lon;timestamp;temperature;humidity
1996;DHT22;38556;47.068;15.408;2022-12-26T00:00:43;5.30;99.90
1996;DHT22;38556;47.068;15.408;2022-12-26T00:03:10;5.30;99.90
1996;DHT22;38556;47.068;15.408;2022-12-26T00:05:37;5.30;99.90
1996;DHT22;38556;47.068;15.408;2022-12-26T00:08:04;5.30;99.90
1996;DHT22;38556;47.068;15.408;2022-12-26T00:10:34;5.20;99.90
1996;DHT22;38556;47.068;15.408;2022-12-26T00:15:29;5.10;99.90
1996;DHT22;38556;47.068;15.408;2022-12-26T00:17:56;5.20;99.90
1996;DHT22;38556;47.068;15.408;2022-12-26T00:20:23;5.20;99.90
1996;DHT22;38556;47.068;15.408;2022-12-26T00:22:50;5.10;99.90
1996;DHT22;38556;47.068;15.408;2022-12-26T00:25:18;5.10;99.90
1996;DHT22;38556;47.068;15.408;2022-12-26T00:27:46;5.10;99.90
1996;DHT22;38556;47.068;15.408;2022-12-26T00:30:14;5.00;99.90
1996;DHT22;38556;47.068;15.408;2022-12-26T00:32:41;5.00;99.90
1996;DHT22;38556;47.068;15.408;2022-12-26T00:35:08;4.90;99.90
1996;DHT22;38556;47.068;15.408;2022-12-26T00:37:36;4.90;99.90
1996;DHT22;38556;47.068;15.408;2022-12-26T00:40:05;5.00;99.90
1996;DHT22;38556;47.068;15.408;2022-12-26T00:42:32;5.00;99.90
1996;DHT22;38556;47.068;15.408;2022-12-26T00:45:01;5.00;99.90
1996;DHT22;38556;47.068;15.408;2022-12-26T00:47:28;4.90;99.90
1996;DHT22;38556;47.068;15.408;2022-12-26T00:49:56;4.90;99.90
1996;DHT22;38556;47.068;15.408;2022-12-26T00:52:23;4.90;99.90
1996;DHT22;38556;47.068;15.408;2022-12-26T00:54:51;4.90;99.90
1996;DHT22;38556;47.068;15.408;2022-12-26T00:57:18;4.80;99.90
1996;DHT22;38556;47.068;15.408;2022-12-26T00:59:45;4.70;99.90
1996;DHT22;38556;47.068;15.408;2022-12-26T01:02:14;4.70;99.90
1996;DHT22;38556;47.068;15.408;2022-12-26T01:07:23;4.60;99.90
1996;DHT22;38556;47.068;15.408;2022-12-26T01:09:50;4.60;99.90
1996;DHT22;38556;47.068;15.408;2022-12-26T01:12:17;4.60;99.90
1996;DHT22;38556;47.068;15.408;2022-12-26T01:14:45;4.60;99.90
1996;DHT22;38556;47.068;15.408;2022-12-26T01:17:13;4.60;99.90
1996;DHT22;38556;47.068;15.408;2022-12-26T01:19:41;4.60;99.90
1996;DHT22;38556;47.068;15.408;2022-12-26T01:22:08;4.60;99.90
1996;DHT22;38556;47.068;15.408;2022-12-26T01:24:35;4.60;99.90
1996;DHT22;38556;47.068;15.408;2022-12-26T01:27:03;4.60;99.90
1996;DHT22;38556;47.068;15.408;2022-12-26T01:29:30;4.60;99.90
1996;DHT22;38556;47.068;15.408;2022-12-26T01:31:57;4.60;99.90
1996;DHT22;38556;47.068;15.408;2022-12-26T01:34:26;4.60;99.90
1996;DHT22;38556;47.068;15.408;2022-12-26T01:36:53;4.50;99.90
1996;DHT22;38556;47.068;15.408;2022-12-26T01:39:21;4.60;99.90
1996;DHT22;38556;47.068;15.408;2022-12-26T01:41:48;4.60;99.90
1996;DHT22;38556;47.068;15.408;2022-12-26T01:47:22;4.60;99.90
1996;DHT22;38556;47.068;15.408;2022-12-26T01:49:53;4.50;99.90
1996;DHT22;38556;47.068;15.408;2022-12-26T01:52:25;4.50;99.90
1996;DHT22;38556;47.068;15.408;2022-12-26T01:54:56;4.40;99.90
1996;DHT22;38556;47.068;15.408;2022-12-26T01:57:26;4.20;99.90
1996;DHT22;38556;47.068;15.408;2022-12-26T01:59:57;4.00;99.90
1996;DHT22;38556;47.068;15.408;2022-12-26T02:02:26;3.90;99.90
1996;DHT22;38556;47.068;15.408;2022-12-26T02:04:57;3.40;99.90
1996;DHT22;38556;47.068;15.408;2022-12-26T02:07:47;3.60;99.90
1996;DHT22;38556;47.068;15.408;2022-12-26T02:10:19;3.70;99.90
1996;DHT22;38556;47.068;15.408;2022-12-26T02:12:49;3.80;99.90
1996;DHT22;38556;47.068;15.408;2022-12-26T02:15:17;3.90;99.90
1996;DHT22;38556;47.068;15.408;2022-12-26T02:17:44;3.90;99.90
1996;DHT22;38556;47.068;15.408;2022-12-26T02:20:21;4.00;99.90
1996;DHT22;38556;47.068;15.408;2022-12-26T02:26:28;4.00;99.90
1996;DHT22;38556;47.068;15.408;2022-12-26T02:29:36;4.10;99.90
1996;DHT22;38556;47.068;15.408;2022-12-26T02:32:14;4.10;99.90
1996;DHT22;38556;47.068;15.408;2022-12-26T02:34:52;4.10;99.90
1996;DHT22;38556;47.068;15.408;2022-12-26T02:37:38;4.00;99.90
1996;DHT22;38556;47.068;15.408;2022-12-26T02:40:36;4.00;99.90
1996;DHT22;38556;47.068;15.408;2022-12-26T02:43:15;4.00;99.90
1996;DHT22;38556;47.068;15.408;2022-12-26T02:45:49;4.00;99.90
1996;DHT22;38556;47.068;15.408;2022-12-26T02:48:45;4.00;99.90
1996;DHT22;38556;47.068;15.408;2022-12-26T02:51:22;4.00;99.90
1996;DHT22;38556;47.068;15.408;2022-12-26T02:54:16;4.00;99.90
1996;DHT22;38556;47.068;15.408;2022-12-26T02:57:05;4.00;99.90
1996;DHT22;38556;47.068;15.408;2022-12-26T02:59:54;3.90;99.90
1996;DHT22;38556;47.068;15.408;2022-12-26T03:02:45;3.90;99.90
1996;DHT22;38556;47.068;15.408;2022-12-26T03:05:34;3.90;99.90
1996;DHT22;38556;47.068;15.408;2022-12-26T03:08:25;3.80;99.90
1996;DHT22;38556;47.068;15.408;2022-12-26T03:11:11;3.80;99.90
1996;DHT22;38556;47.068;15.408;2022-12-26T03:14:04;3.80;99.90
1996;DHT22;38556;47.068;15.408;2022-12-26T03:16:33;3.80;99.90
1996;DHT22;38556;47.068;15.408;2022-12-26T03:19:19;3.80;99.90
1996;DHT22;38556;47.068;15.408;2022-12-26T03:21:48;3.80;99.90
1996;DHT22;38556;47.068;15.408;2022-12-26T03:24:16;3.80;99.90
1996;DHT22;38556;47.068;15.408;2022-12-26T03:26:48;3.80;99.90
1996;DHT22;38556;47.068;15.408;2022-12-26T03:29:19;3.70;99.90
1996;DHT22;38556;47.068;15.408;2022-12-26T03:32:06;3.70;99.90
1996;DHT22;38556;47.068;15.408;2022-12-26T03:34:39;3.80;99.90
1996;DHT22;38556;47.068;15.408;2022-12-26T03:37:26;3.80;99.90
1996;DHT22;38556;47.068;15.408;2022-12-26T03:40:07;3.50;99.90
1996;DHT22;38556;47.068;15.408;2022-12-26T03:45:48;3.60;99.90
1996;DHT22;38556;47.068;15.408;2022-12-26T03:48:43;3.60;99.90
1996;DHT22;38556;47.068;15.408;2022-12-26T03:51:36;3.60;99.90
1996;DHT22;38556;47.068;15.408;2022-12-26T03:54:31;3.60;99.90
1996;DHT22;38556;47.068;15.408;2022-12-26T03:57:20;3.60;99.90
1996;DHT22;38556;47.068;15.408;2022-12-26T04:00:10;3.60;99.90
1996;DHT22;38556;47.068;15.408;2022-12-26T04:02:59;3.70;99.90
1996;DHT22;38556;47.068;15.408;2022-12-26T04:05:44;3.70;99.90
1996;DHT22;38556;47.068;15.408;2022-12-26T04:08:45;3.70;99.90
1996;DHT22;38556;47.068;15.408;2022-12-26T04:11:34;3.70;99.90
1996;DHT22;38556;47.068;15.408;2022-12-26T04:14:35;3.50;99.90
1996;DHT22;38556;47.068;15.408;2022-12-26T04:17:28;3.50;99.90
1996;DHT22;38556;47.068;15.408;2022-12-26T04:20:33;3.60;99.90
1996;DHT22;38556;47.068;15.408;2022-12-26T04:23:05;3.60;99.90
1996;DHT22;38556;47.068;15.408;2022-12-26T04:25:56;3.60;99.90
1996;DHT22;38556;47.068;15.408;2022-12-26T04:28:43;3.70;99.90
1996;DHT22;38556;47.068;15.408;2022-12-26T04:31:30;3.70;99.90
1996;DHT22;38556;47.068;15.408;2022-12-26T04:37:11;3.70;99.90
1996;DHT22;38556;47.068;15.408;2022-12-26T04:40:01;3.70;99.90
1996;DHT22;38556;47.068;15.408;2022-12-26T04:42:49;3.70;99.90
1996;DHT22;38556;47.068;15.408;2022-12-26T04:45:35;3.70;99.90
1996;DHT22;38556;47.068;15.408;2022-12-26T04:48:03;3.70;99.90
1996;DHT22;38556;47.068;15.408;2022-12-26T04:50:48;3.70;99.90
1996;DHT22;38556;47.068;15.408;2022-12-26T04:53:16;3.80;99.90
1996;DHT22;38556;47.068;15.408;2022-12-26T04:55:44;3.80;99.90
1996;DHT22;38556;47.068;15.408;2022-12-26T05:00:40;3.80;99.90
1996;DHT22;38556;47.068;15.408;2022-12-26T05:03:09;3.80;99.90
1996;DHT22;38556;47.068;15.408;2022-12-26T05:05:54;3.80;99.90
1996;DHT22;38556;47.068;15.408;2022-12-26T05:08:37;3.80;99.90
1996;DHT22;38556;47.068;15.408;2022-12-26T05:11:24;3.80;99.90
1996;DHT22;38556;47.068;15.408;2022-12-26T05:13:51;3.70;99.90
1996;DHT22;38556;47.068;15.408;2022-12-26T05:16:21;3.70;99.90
1996;DHT22;38556;47.068;15.408;2022-12-26T05:19:08;3.70;99.90
1996;DHT22;38556;47.068;15.408;2022-12-26T05:21:54;3.70;99.90
1996;DHT22;38556;47.068;15.408;2022-12-26T05:27:38;3.70;99.90
1996;DHT22;38556;47.068;15.408;2022-12-26T05:30:24;3.70;99.90
1996;DHT22;38556;47.068;15.408;2022-12-26T05:32:53;3.70;99.90
1996;DHT22;38556;47.068;15.408;2022-12-26T05:35:38;3.70;99.90
1996;DHT22;38556;47.068;15.408;2022-12-26T05:38:07;3.70;99.90
1996;DHT22;38556;47.068;15.408;2022-12-26T05:40:35;3.70;99.90
1996;DHT22;38556;47.068;15.408;2022-12-26T05:43:02;3.70;99.90
1996;DHT22;38556;47.068;15.408;2022-12-26T05:45:30;3.70;99.90
1996;DHT22;38556;47.068;15.408;2022-12-26T05:47:59;3.70;99.90
1996;DHT22;38556;47.068;15.408;2022-12-26T05:50:27;3.80;99.90
1996;DHT22;38556;47.068;15.408;2022-12-26T05:55:23;3.80;99.90
1996;DHT22;38556;47.068;15.408;2022-12-26T05:57:50;3.80;99.90
1996;DHT22;38556;47.068;15.408;2022-12-26T06:02:45;3.80;99.90
1996;DHT22;38556;47.068;15.408;2022-12-26T06:05:14;3.80;99.90
1996;DHT22;38556;47.068;15.408;2022-12-26T06:07:41;3.80;99.90
1996;DHT22;38556;47.068;15.408;2022-12-26T06:10:09;3.80;99.90
1996;DHT22;38556;47.068;15.408;2022-12-26T06:12:36;3.80;99.90
1996;DHT22;38556;47.068;15.408;2022-12-26T06:15:05;3.80;99.90
1996;DHT22;38556;47.068;15.408;2022-12-26T06:20:00;3.80;99.90
1996;DHT22;38556;47.068;15.408;2022-12-26T06:22:29;3.90;99.90
1996;DHT22;38556;47.068;15.408;2022-12-26T06:24:56;3.80;99.90
1996;DHT22;38556;47.068;15.408;2022-12-26T06:34:46;3.60;99.90
1996;DHT22;38556;47.068;15.408;2022-12-26T06:37:13;3.60;99.90
1996;DHT22;38556;47.068;15.408;2022-12-26T06:39:43;3.50;99.90
1996;DHT22;38556;47.068;15.408;2022-12-26T06:42:10;3.50;99.90
1996;DHT22;38556;47.068;15.408;2022-12-26T06:47:05;3.50;99.90
1996;DHT22;38556;47.068;15.408;2022-12-26T06:49:32;3.50;99.90
1996;DHT22;38556;47.068;15.408;2022-12-26T06:54:27;3.40;99.90
1996;DHT22;38556;47.068;15.408;2022-12-26T06:56:56;3.40;99.90
1996;DHT22;38556;47.068;15.408;2022-12-26T06:59:23;3.40;99.90
1996;DHT22;38556;47.068;15.408;2022-12-26T07:04:18;3.10;99.90
1996;DHT22;38556;47.068;15.408;2022-12-26T07:06:45;3.10;99.90
1996;DHT22;38556;47.068;15.408;2022-12-26T07:09:16;3.20;99.90
1996;DHT22;38556;47.068;15.408;2022-12-26T07:11:45;3.30;99.90
1996;DHT22;38556;47.068;15.408;2022-12-26T07:14:14;3.30;99.90
1996;DHT22;38556;47.068;15.408;2022-12-26T07:16:42;3.40;99.90
1996;DHT22;38556;47.068;15.408;2022-12-26T07:19:12;3.40;99.90
1996;DHT22;38556;47.068;15.408;2022-12-26T07:21:40;3.40;99.90
1996;DHT22;38556;47.068;15.408;2022-12-26T07:24:13;3.50;99.90
1996;DHT22;38556;47.068;15.408;2022-12-26T07:29:10;3.50;99.90
1996;DHT22;38556;47.068;15.408;2022-12-26T07:31:40;3.60;99.90
1996;DHT22;38556;47.068;15.408;2022-12-26T07:39:03;3.70;99.90
1996;DHT22;38556;47.068;15.408;2022-12-26T07:41:30;3.80;99.90
1996;DHT22;38556;47.068;15.408;2022-12-26T07:44:14;3.60;99.90
1996;DHT22;38556;47.068;15.408;2022-12-26T07:46:43;3.70;99.90
1996;DHT22;38556;47.068;15.408;2022-12-26T07:49:11;3.70;99.90
1996;DHT22;38556;47.068;15.408;2022-12-26T07:51:40;3.80;99.90
1996;DHT22;38556;47.068;15.408;2022-12-26T07:54:07;3.80;99.90
1996;DHT22;38556;47.068;15.408;2022-12-26T07:56:35;3.80;99.90
1996;DHT22;38556;47.068;15.408;2022-12-26T07:59:03;3.80;99.90
1996;DHT22;38556;47.068;15.408;2022-12-26T08:01:30;3.80;99.90
1996;DHT22;38556;47.068;15.408;2022-12-26T08:03:59;3.90;99.90
1996;DHT22;38556;47.068;15.408;2022-12-26T08:06:26;3.90;99.90
1996;DHT22;38556;47.068;15.408;2022-12-26T08:11:22;4.00;99.90
1996;DHT22;38556;47.068;15.408;2022-12-26T08:18:46;4.30;99.90
1996;DHT22;38556;47.068;15.408;2022-12-26T08:21:15;4.30;99.90
1996;DHT22;38556;47.068;15.408;2022-12-26T08:23:42;4.30;99.90
1996;DHT22;38556;47.068;15.408;2022-12-26T08:26:11;4.40;99.90
1996;DHT22;38556;47.068;15.408;2022-12-26T08:28:45;4.40;99.90
1996;DHT22;38556;47.068;15.408;2022-12-26T08:36:10;4.50;99.90
1996;DHT22;38556;47.068;15.408;2022-12-26T08:38:39;4.60;99.90
1996;DHT22;38556;47.068;15.408;2022-12-26T08:41:07;4.70;99.90
1996;DHT22;38556;47.068;15.408;2022-12-26T08:46:04;4.80;99.90
1996;DHT22;38556;47.068;15.408;2022-12-26T08:48:32;4.80;99.90
1996;DHT22;38556;47.068;15.408;2022-12-26T08:51:02;4.90;99.90
1996;DHT22;38556;47.068;15.408;2022-12-26T08:56:03;5.00;99.90
1996;DHT22;38556;47.068;15.408;2022-12-26T08:58:32;5.00;99.90
1996;DHT22;38556;47.068;15.408;2022-12-26T09:01:08;5.00;99.90
1996;DHT22;38556;47.068;15.408;2022-12-26T09:06:03;5.00;99.90
1996;DHT22;38556;47.068;15.408;2022-12-26T09:08:32;5.00;99.90
1996;DHT22;38556;47.068;15.408;2022-12-26T09:11:06;5.10;99.90
1996;DHT22;38556;47.068;15.408;2022-12-26T09:13:35;5.10;99.90
1996;DHT22;38556;47.068;15.408;2022-12-26T09:16:05;5.20;99.90
1996;DHT22;38556;47.068;15.408;2022-12-26T09:18:33;5.00;99.90
1996;DHT22;38556;47.068;15.408;2022-12-26T09:21:01;5.00;99.90
1996;DHT22;38556;47.068;15.408;2022-12-26T09:23:28;5.20;99.90
1996;DHT22;38556;47.068;15.408;2022-12-26T09:26:05;5.30;99.90
1996;DHT22;38556;47.068;15.408;2022-12-26T09:28:32;5.50;99.90
1996;DHT22;38556;47.068;15.408;2022-12-26T09:31:00;5.60;99.90
1996;DHT22;38556;47.068;15.408;2022-12-26T09:33:28;5.70;99.90
1996;DHT22;38556;47.068;15.408;2022-12-26T09:38:23;5.80;99.90
1996;DHT22;38556;47.068;15.408;2022-12-26T09:41:03;5.90;99.90
1996;DHT22;38556;47.068;15.408;2022-12-26T09:43:44;6.00;99.90
1996;DHT22;38556;47.068;15.408;2022-12-26T09:46:20;6.10;99.90
1996;DHT22;38556;47.068;15.408;2022-12-26T09:48:58;6.20;99.90
1996;DHT22;38556;47.068;15.408;2022-12-26T09:51:30;6.20;99.90
1996;DHT22;38556;47.068;15.408;2022-12-26T09:53:59;6.30;99.90
1996;DHT22;38556;47.068;15.408;2022-12-26T09:56:29;6.40;99.90
1996;DHT22;38556;47.068;15.408;2022-12-26T09:59:05;6.50;99.90
1996;DHT22;38556;47.068;15.408;2022-12-26T10:01:34;6.50;99.90
1996;DHT22;38556;47.068;15.408;2022-12-26T10:04:07;6.60;99.90
1996;DHT22;38556;47.068;15.408;2022-12-26T10:06:38;6.60;99.90
1996;DHT22;38556;47.068;15.408;2022-12-26T10:09:23;6.60;99.90
1996;DHT22;38556;47.068;15.408;2022-12-26T10:12:04;6.70;99.90
1996;DHT22;38556;47.068;15.408;2022-12-26T10:14:40;6.80;99.90
1996;DHT22;38556;47.068;15.408;2022-12-26T10:17:16;6.90;99.90
1996;DHT22;38556;47.068;15.408;2022-12-26T10:19:55;7.00;99.90
1996;DHT22;38556;47.068;15.408;2022-12-26T10:22:54;7.10;99.90
1996;DHT22;38556;47.068;15.408;2022-12-26T10:25:33;7.20;99.90
1996;DHT22;38556;47.068;15.408;2022-12-26T10:28:03;7.30;99.90
1996;DHT22;38556;47.068;15.408;2022-12-26T10:30:38;7.30;99.90
1996;DHT22;38556;47.068;15.408;2022-12-26T10:33:12;7.40;99.90
1996;DHT22;38556;47.068;15.408;2022-12-26T10:35:43;7.40;99.90
1996;DHT22;38556;47.068;15.408;2022-12-26T10:38:14;7.20;99.90
1996;DHT22;38556;47.068;15.408;2022-12-26T10:40:43;7.30;99.90
1996;DHT22;38556;47.068;15.408;2022-12-26T10:43:22;7.20;99.90
1996;DHT22;38556;47.068;15.408;2022-12-26T10:46:13;7.10;99.90
1996;DHT22;38556;47.068;15.408;2022-12-26T10:48:42;7.10;99.90
1996;DHT22;38556;47.068;15.408;2022-12-26T10:51:10;7.10;99.90
1996;DHT22;38556;47.068;15.408;2022-12-26T10:53:42;7.20;99.90
1996;DHT22;38556;47.068;15.408;2022-12-26T10:56:10;7.20;99.90
1996;DHT22;38556;47.068;15.408;2022-12-26T10:58:39;7.40;99.90
1996;DHT22;38556;47.068;15.408;2022-12-26T11:01:32;7.40;99.90
1996;DHT22;38556;47.068;15.408;2022-12-26T11:04:00;7.40;99.90
1996;DHT22;38556;47.068;15.408;2022-12-26T11:06:32;7.50;99.90
1996;DHT22;38556;47.068;15.408;2022-12-26T11:09:00;7.50;99.90
1996;DHT22;38556;47.068;15.408;2022-12-26T11:11:28;7.50;99.90
1996;DHT22;38556;47.068;15.408;2022-12-26T11:14:27;7.50;99.90
1996;DHT22;38556;47.068;15.408;2022-12-26T11:16:57;7.60;99.90
1996;DHT22;38556;47.068;15.408;2022-12-26T11:19:26;7.60;99.90
1996;DHT22;38556;47.068;15.408;2022-12-26T11:21:53;7.60;99.90
1996;DHT22;38556;47.068;15.408;2022-12-26T11:24:21;7.60;99.90
1996;DHT22;38556;47.068;15.408;2022-12-26T11:26:48;7.80;99.90
1996;DHT22;38556;47.068;15.408;2022-12-26T11:29:17;7.80;99.90
1996;DHT22;38556;47.068;15.408;2022-12-26T11:31:50;7.90;99.90
1996;DHT22;38556;47.068;15.408;2022-12-26T11:34:26;7.80;99.90
1996;DHT22;38556;47.068;15.408;2022-12-26T11:36:57;7.90;99.90
1996;DHT22;38556;47.068;15.408;2022-12-26T11:39:27;8.00;99.90
1996;DHT22;38556;47.068;15.408;2022-12-26T11:41:56;8.20;99.90
1996;DHT22;38556;47.068;15.408;2022-12-26T11:44:26;8.20;99.90
1996;DHT22;38556;47.068;15.408;2022-12-26T11:46:57;8.30;99.90
1996;DHT22;38556;47.068;15.408;2022-12-26T11:49:30;8.40;99.90
1996;DHT22;38556;47.068;15.408;2022-12-26T11:51:59;8.50;99.90
1996;DHT22;38556;47.068;15.408;2022-12-26T11:54:31;8.60;99.90
1996;DHT22;38556;47.068;15.408;2022-12-26T11:57:02;8.50;99.90
1996;DHT22;38556;47.068;15.408;2022-12-26T11:59:30;8.70;99.90
1996;DHT22;38556;47.068;15.408;2022-12-26T12:02:15;8.80;99.90
1996;DHT22;38556;47.068;15.408;2022-12-26T12:04:47;8.90;99.90
1996;DHT22;38556;47.068;15.408;2022-12-26T12:07:23;9.00;99.90
1996;DHT22;38556;47.068;15.408;2022-12-26T12:10:00;9.00;99.90
1996;DHT22;38556;47.068;15.408;2022-12-26T12:12:35;9.10;99.90
1996;DHT22;38556;47.068;15.408;2022-12-26T12:15:12;9.00;99.90
1996;DHT22;38556;47.068;15.408;2022-12-26T12:17:45;9.30;99.90
1996;DHT22;38556;47.068;15.408;2022-12-26T12:20:23;9.40;99.90
1996;DHT22;38556;47.068;15.408;2022-12-26T12:23:32;9.50;99.90
1996;DHT22;38556;47.068;15.408;2022-12-26T12:26:09;9.60;99.90
1996;DHT22;38556;47.068;15.408;2022-12-26T12:28:57;9.70;99.90
1996;DHT22;38556;47.068;15.408;2022-12-26T12:31:35;9.80;99.90
1996;DHT22;38556;47.068;15.408;2022-12-26T12:34:14;9.70;99.90
1996;DHT22;38556;47.068;15.408;2022-12-26T12:36:54;9.80;99.90
1996;DHT22;38556;47.068;15.408;2022-12-26T12:39:31;9.80;99.90
1996;DHT22;38556;47.068;15.408;2022-12-26T12:42:12;9.90;99.90
1996;DHT22;38556;47.068;15.408;2022-12-26T12:44:57;10.00;99.90
1996;DHT22;38556;47.068;15.408;2022-12-26T12:47:38;10.10;99.90
1996;DHT22;38556;47.068;15.408;2022-12-26T12:50:15;10.20;99.90
1996;DHT22;38556;47.068;15.408;2022-12-26T12:52:51;10.40;99.90
1996;DHT22;38556;47.068;15.408;2022-12-26T12:55:43;10.50;99.90
1996;DHT22;38556;47.068;15.408;2022-12-26T12:58:19;10.50;99.90
1996;DHT22;38556;47.068;15.408;2022-12-26T13:00:54;10.80;99.90
1996;DHT22;38556;47.068;15.408;2022-12-26T13:03:27;10.80;99.90
1996;DHT22;38556;47.068;15.408;2022-12-26T13:06:03;10.90;99.90
1996;DHT22;38556;47.068;15.408;2022-12-26T13:08:37;10.90;99.90
1996;DHT22;38556;47.068;15.408;2022-12-26T13:11:09;11.00;99.90
1996;DHT22;38556;47.068;15.408;2022-12-26T13:13:40;11.20;99.90
1996;DHT22;38556;47.068;15.408;2022-12-26T13:16:12;11.30;99.90
1996;DHT22;38556;47.068;15.408;2022-12-26T13:18:47;11.40;99.90
1996;DHT22;38556;47.068;15.408;2022-12-26T13:21:16;11.50;99.90
1996;DHT22;38556;47.068;15.408;2022-12-26T13:23:48;11.60;99.90
1996;DHT22;38556;47.068;15.408;2022-12-26T13:29:10;11.80;99.90
1996;DHT22;38556;47.068;15.408;2022-12-26T13:31:39;11.80;99.90
1996;DHT22;38556;47.068;15.408;2022-12-26T13:34:08;11.90;99.90
1996;DHT22;38556;47.068;15.408;2022-12-26T13:36:39;12.00;99.90
1996;DHT22;38556;47.068;15.408;2022-12-26T13:39:33;12.10;99.90
1996;DHT22;38556;47.068;15.408;2022-12-26T13:42:31;12.10;99.90
1996;DHT22;38556;47.068;15.408;2022-12-26T13:48:51;12.30;99.90
1996;DHT22;38556;47.068;15.408;2022-12-26T13:51:44;12.60;99.90
1996;DHT22;38556;47.068;15.408;2022-12-26T13:54:13;12.70;99.90
1996;DHT22;38556;47.068;15.408;2022-12-26T13:57:24;12.90;99.90
1996;DHT22;38556;47.068;15.408;2022-12-26T14:00:00;13.00;99.90
1996;DHT22;38556;47.068;15.408;2022-12-26T14:06:03;13.10;99.90
1996;DHT22;38556;47.068;15.408;2022-12-26T14:08:40;13.10;99.90
1996;DHT22;38556;47.068;15.408;2022-12-26T14:11:21;13.20;99.90
1996;DHT22;38556;47.068;15.408;2022-12-26T14:14:07;13.40;99.90
1996;DHT22;38556;47.068;15.408;2022-12-26T14:16:44;13.70;99.90
1996;DHT22;38556;47.068;15.408;2022-12-26T14:19:23;13.70;99.90
1996;DHT22;38556;47.068;15.408;2022-12-26T14:22:02;13.90;99.90
1996;DHT22;38556;47.068;15.408;2022-12-26T14:24:40;14.10;99.90
1996;DHT22;38556;47.068;15.408;2022-12-26T14:27:24;14.10;99.90
1996;DHT22;38556;47.068;15.408;2022-12-26T14:32:50;14.10;99.90
1996;DHT22;38556;47.068;15.408;2022-12-26T14:35:27;14.10;99.90
1996;DHT22;38556;47.068;15.408;2022-12-26T14:38:08;13.80;99.90
1996;DHT22;38556;47.068;15.408;2022-12-26T14:40:57;13.80;99.90
1996;DHT22;38556;47.068;15.408;2022-12-26T14:43:36;13.60;99.90
1996;DHT22;38556;47.068;15.408;2022-12-26T14:46:44;13.50;99.90
1996;DHT22;38556;47.068;15.408;2022-12-26T14:48:58;13.10;99.90
1996;DHT22;38556;47.068;15.408;2022-12-26T14:51:35;12.90;99.90
1996;DHT22;38556;47.068;15.408;2022-12-26T14:54:38;12.70;99.90
1996;DHT22;38556;47.068;15.408;2022-12-26T14:57:44;12.50;99.90
1996;DHT22;38556;47.068;15.408;2022-12-26T15:00:23;12.40;99.90
1996;DHT22;38556;47.068;15.408;2022-12-26T15:06:03;12.20;99.90
1996;DHT22;38556;47.068;15.408;2022-12-26T15:08:59;11.90;99.90
1996;DHT22;38556;47.068;15.408;2022-12-26T15:14:56;11.80;99.90
1996;DHT22;38556;47.068;15.408;2022-12-26T15:17:35;11.10;99.90
1996;DHT22;38556;47.068;15.408;2022-12-26T15:23:30;11.20;99.90
1996;DHT22;38556;47.068;15.408;2022-12-26T15:26:33;11.00;99.90
1996;DHT22;38556;47.068;15.408;2022-12-26T15:29:24;10.90;99.90
1996;DHT22;38556;47.068;15.408;2022-12-26T15:32:03;10.90;99.90
1996;DHT22;38556;47.068;15.408;2022-12-26T15:34:54;10.90;99.90
1996;DHT22;38556;47.068;15.408;2022-12-26T15:37:47;10.70;99.90
1996;DHT22;38556;47.068;15.408;2022-12-26T15:40:21;10.70;99.90
1996;DHT22;38556;47.068;15.408;2022-12-26T15:43:02;10.70;99.90
1996;DHT22;38556;47.068;15.408;2022-12-26T15:45:44;10.70;99.90
1996;DHT22;38556;47.068;15.408;2022-12-26T15:48:24;10.60;99.90
1996;DHT22;38556;47.068;15.408;2022-12-26T15:50:57;10.50;99.90
1996;DHT22;38556;47.068;15.408;2022-12-26T15:53:37;10.10;99.90
1996;DHT22;38556;47.068;15.408;2022-12-26T15:56:37;10.20;99.90
1996;DHT22;38556;47.068;15.408;2022-12-26T15:59:32;10.20;99.90
1996;DHT22;38556;47.068;15.408;2022-12-26T16:02:10;10.20;99.90
1996;DHT22;38556;47.068;15.408;2022-12-26T16:04:42;10.10;99.90
1996;DHT22;38556;47.068;15.408;2022-12-26T16:07:22;10.10;99.90
1996;DHT22;38556;47.068;15.408;2022-12-26T16:09:56;10.00;99.90
1996;DHT22;38556;47.068;15.408;2022-12-26T16:12:26;10.00;99.90
1996;DHT22;38556;47.068;15.408;2022-12-26T16:15:12;9.90;99.90
1996;DHT22;38556;47.068;15.408;2022-12-26T16:17:42;9.80;99.90
1996;DHT22;38556;47.068;15.408;2022-12-26T16:20:17;9.70;99.90
1996;DHT22;38556;47.068;15.408;2022-12-26T16:23:05;9.60;99.90
1996;DHT22;38556;47.068;15.408;2022-12-26T16:25:32;9.50;99.90
1996;DHT22;38556;47.068;15.408;2022-12-26T16:28:00;9.30;99.90
1996;DHT22;38556;47.068;15.408;2022-12-26T16:30:31;9.20;99.90
1996;DHT22;38556;47.068;15.408;2022-12-26T16:33:01;9.20;99.90
1996;DHT22;38556;47.068;15.408;2022-12-26T16:35:32;9.20;99.90
1996;DHT22;38556;47.068;15.408;2022-12-26T16:38:02;9.10;99.90
1996;DHT22;38556;47.068;15.408;2022-12-26T16:40:34;9.00;99.90
1996;DHT22;38556;47.068;15.408;2022-12-26T16:43:25;9.00;99.90
1996;DHT22;38556;47.068;15.408;2022-12-26T16:45:55;8.90;99.90
1996;DHT22;38556;47.068;15.408;2022-12-26T16:48:25;8.90;99.90
1996;DHT22;38556;47.068;15.408;2022-12-26T16:50:55;8.90;99.90
1996;DHT22;38556;47.068;15.408;2022-12-26T16:53:39;8.70;99.90
1996;DHT22;38556;47.068;15.408;2022-12-26T16:56:20;8.60;99.90
1996;DHT22;38556;47.068;15.408;2022-12-26T16:58:49;8.60;99.90
1996;DHT22;38556;47.068;15.408;2022-12-26T17:01:20;8.60;99.90
1996;DHT22;38556;47.068;15.408;2022-12-26T17:03:51;8.50;99.90
1996;DHT22;38556;47.068;15.408;2022-12-26T17:06:23;8.40;99.90
1996;DHT22;38556;47.068;15.408;2022-12-26T17:08:52;8.40;99.90
1996;DHT22;38556;47.068;15.408;2022-12-26T17:11:33;8.30;99.90
1996;DHT22;38556;47.068;15.408;2022-12-26T17:14:02;8.40;99.90
1996;DHT22;38556;47.068;15.408;2022-12-26T17:16:31;8.40;99.90
1996;DHT22;38556;47.068;15.408;2022-12-26T17:19:09;8.40;99.90
1996;DHT22;38556;47.068;15.408;2022-12-26T17:21:37;7.90;99.90
1996;DHT22;38556;47.068;15.408;2022-12-26T17:24:23;7.90;99.90
1996;DHT22;38556;47.068;15.408;2022-12-26T17:27:08;8.10;99.90
1996;DHT22;38556;47.068;15.408;2022-12-26T17:29:48;8.10;99.90
1996;DHT22;38556;47.068;15.408;2022-12-26T17:32:26;8.10;99.90
1996;DHT22;38556;47.068;15.408;2022-12-26T17:34:53;8.10;99.90
1996;DHT22;38556;47.068;15.408;2022-12-26T17:37:23;8.10;99.90
1996;DHT22;38556;47.068;15.408;2022-12-26T17:39:56;8.10;99.90
1996;DHT22;38556;47.068;15.408;2022-12-26T17:42:27;8.00;99.90
1996;DHT22;38556;47.068;15.408;2022-12-26T17:44:54;8.00;99.90
1996;DHT22;38556;47.068;15.408;2022-12-26T17:47:25;8.00;99.90
1996;DHT22;38556;47.068;15.408;2022-12-26T17:49:53;7.90;99.90
1996;DHT22;38556;47.068;15.408;2022-12-26T17:52:22;8.00;99.90
1996;DHT22;38556;47.068;15.408;2022-12-26T17:54:51;8.00;99.90
1996;DHT22;38556;47.068;15.408;2022-12-26T17:57:22;7.90;99.90
1996;DHT22;38556;47.068;15.408;2022-12-26T17:59:52;7.90;99.90
1996;DHT22;38556;47.068;15.408;2022-12-26T18:02:20;7.80;99.90
1996;DHT22;38556;47.068;15.408;2022-12-26T18:04:48;7.80;99.90
1996;DHT22;38556;47.068;15.408;2022-12-26T18:07:19;7.70;99.90
1996;DHT22;38556;47.068;15.408;2022-12-26T18:09:47;7.70;99.90